Millen, Georgia
Current Conditions -  °F | °C
As of 7:55 PM on Monday 26 Jan 2015 (Local Time) from KJYL Reporting Station
Broken Clouds Broken Clouds  
Wind Chill: 38°   Ceiling: 3600
Heat Index: 45°   Visibility: 10mi
Dew Point: 35°   Wind: 15mph
Humidity: 68%   Direction: 310°NW
Pressure: 29.84"   Gusts: 21mph
Location:  32.8°N, 81.95°W
Report Text: KJYL 270055Z AUTO 31013G18KT 10SM BKN036 07/02 A2984 RMK AO2 T00730018
Loading
Personal Weather Stations






























Interactive Weather Map New forecast layout! Learn more

10-Day Weather Forecast

Advertisements
Track Severe Weather on mobile